sensor_id;sensor_type;location;lat;lon;timestamp;P1;durP1;ratioP1;P2;durP2;ratioP2
24277;SDS011;12394;42.692;23.314;2023-07-31T00:01:18;5.37;;;3.80;;
24277;SDS011;12394;42.692;23.314;2023-07-31T00:03:43;4.03;;;3.63;;
24277;SDS011;12394;42.692;23.314;2023-07-31T00:06:10;9.17;;;4.70;;
24277;SDS011;12394;42.692;23.314;2023-07-31T00:08:36;10.63;;;4.70;;
24277;SDS011;12394;42.692;23.314;2023-07-31T00:11:01;4.40;;;3.77;;
24277;SDS011;12394;42.692;23.314;2023-07-31T00:13:26;5.93;;;3.83;;
24277;SDS011;12394;42.692;23.314;2023-07-31T00:15:52;3.90;;;3.50;;
24277;SDS011;12394;42.692;23.314;2023-07-31T00:18:17;4.43;;;3.63;;
24277;SDS011;12394;42.692;23.314;2023-07-31T00:20:42;6.00;;;3.90;;
24277;SDS011;12394;42.692;23.314;2023-07-31T00:23:08;4.77;;;3.63;;
24277;SDS011;12394;42.692;23.314;2023-07-31T00:25:33;4.33;;;3.77;;
24277;SDS011;12394;42.692;23.314;2023-07-31T00:27:59;4.20;;;3.80;;
24277;SDS011;12394;42.692;23.314;2023-07-31T00:30:24;6.50;;;4.37;;
24277;SDS011;12394;42.692;23.314;2023-07-31T00:32:50;4.70;;;3.70;;
24277;SDS011;12394;42.692;23.314;2023-07-31T00:35:16;5.97;;;4.47;;
24277;SDS011;12394;42.692;23.314;2023-07-31T00:37:41;5.20;;;3.83;;
24277;SDS011;12394;42.692;23.314;2023-07-31T00:40:07;5.50;;;4.20;;
24277;SDS011;12394;42.692;23.314;2023-07-31T00:42:33;7.50;;;4.90;;
24277;SDS011;12394;42.692;23.314;2023-07-31T00:44:58;6.00;;;4.73;;
24277;SDS011;12394;42.692;23.314;2023-07-31T00:47:23;8.37;;;4.67;;
24277;SDS011;12394;42.692;23.314;2023-07-31T00:49:49;7.17;;;5.07;;
24277;SDS011;12394;42.692;23.314;2023-07-31T00:52:14;7.67;;;6.07;;
24277;SDS011;12394;42.692;23.314;2023-07-31T00:54:40;6.33;;;5.73;;
24277;SDS011;12394;42.692;23.314;2023-07-31T00:57:06;8.83;;;7.83;;
24277;SDS011;12394;42.692;23.314;2023-07-31T00:59:33;10.27;;;8.77;;
24277;SDS011;12394;42.692;23.314;2023-07-31T01:01:59;14.00;;;9.13;;
24277;SDS011;12394;42.692;23.314;2023-07-31T01:04:24;9.63;;;8.63;;
24277;SDS011;12394;42.692;23.314;2023-07-31T01:12:41;9.33;;;8.43;;
24277;SDS011;12394;42.692;23.314;2023-07-31T01:15:10;9.97;;;8.97;;
24277;SDS011;12394;42.692;23.314;2023-07-31T01:17:39;13.20;;;11.87;;
24277;SDS011;12394;42.692;23.314;2023-07-31T01:20:05;13.57;;;12.17;;
24277;SDS011;12394;42.692;23.314;2023-07-31T01:25:53;18.40;;;14.00;;
24277;SDS011;12394;42.692;23.314;2023-07-31T01:28:32;15.27;;;13.37;;
24277;SDS011;12394;42.692;23.314;2023-07-31T01:30:59;17.83;;;13.80;;
24277;SDS011;12394;42.692;23.314;2023-07-31T01:33:27;19.43;;;16.33;;
24277;SDS011;12394;42.692;23.314;2023-07-31T01:35:53;19.87;;;17.37;;
24277;SDS011;12394;42.692;23.314;2023-07-31T01:38:22;21.90;;;19.33;;
24277;SDS011;12394;42.692;23.314;2023-07-31T01:40:50;20.47;;;18.37;;
24277;SDS011;12394;42.692;23.314;2023-07-31T01:43:19;20.20;;;18.30;;
24277;SDS011;12394;42.692;23.314;2023-07-31T01:45:44;22.03;;;19.73;;
24277;SDS011;12394;42.692;23.314;2023-07-31T01:48:10;29.20;;;25.47;;
24277;SDS011;12394;42.692;23.314;2023-07-31T01:50:35;28.40;;;25.47;;
24277;SDS011;12394;42.692;23.314;2023-07-31T01:53:00;29.90;;;26.63;;
24277;SDS011;12394;42.692;23.314;2023-07-31T01:55:26;30.07;;;26.97;;
24277;SDS011;12394;42.692;23.314;2023-07-31T01:57:51;27.17;;;22.93;;
24277;SDS011;12394;42.692;23.314;2023-07-31T02:00:17;27.17;;;24.37;;
24277;SDS011;12394;42.692;23.314;2023-07-31T02:02:43;27.53;;;24.73;;
24277;SDS011;12394;42.692;23.314;2023-07-31T02:05:08;24.80;;;22.03;;
24277;SDS011;12394;42.692;23.314;2023-07-31T02:07:34;25.97;;;23.27;;
24277;SDS011;12394;42.692;23.314;2023-07-31T02:09:59;26.80;;;23.23;;
24277;SDS011;12394;42.692;23.314;2023-07-31T02:12:25;23.87;;;21.43;;
24277;SDS011;12394;42.692;23.314;2023-07-31T02:14:50;25.13;;;21.63;;
24277;SDS011;12394;42.692;23.314;2023-07-31T02:17:15;26.33;;;23.73;;
24277;SDS011;12394;42.692;23.314;2023-07-31T02:19:41;24.20;;;21.73;;
24277;SDS011;12394;42.692;23.314;2023-07-31T02:22:06;25.67;;;22.97;;
24277;SDS011;12394;42.692;23.314;2023-07-31T02:24:32;27.00;;;23.33;;
24277;SDS011;12394;42.692;23.314;2023-07-31T02:26:57;24.10;;;21.70;;
24277;SDS011;12394;42.692;23.314;2023-07-31T02:29:22;24.83;;;22.27;;
24277;SDS011;12394;42.692;23.314;2023-07-31T02:31:48;27.87;;;23.37;;
24277;SDS011;12394;42.692;23.314;2023-07-31T02:34:13;25.87;;;22.23;;
24277;SDS011;12394;42.692;23.314;2023-07-31T02:36:39;24.53;;;22.03;;
24277;SDS011;12394;42.692;23.314;2023-07-31T02:39:04;24.67;;;21.10;;
24277;SDS011;12394;42.692;23.314;2023-07-31T02:41:30;26.87;;;24.17;;
24277;SDS011;12394;42.692;23.314;2023-07-31T02:43:55;25.57;;;22.90;;
24277;SDS011;12394;42.692;23.314;2023-07-31T02:46:20;24.90;;;22.40;;
24277;SDS011;12394;42.692;23.314;2023-07-31T02:48:49;23.87;;;21.50;;
24277;SDS011;12394;42.692;23.314;2023-07-31T02:51:14;26.50;;;23.10;;
24277;SDS011;12394;42.692;23.314;2023-07-31T02:53:40;25.60;;;23.07;;
24277;SDS011;12394;42.692;23.314;2023-07-31T02:56:05;26.13;;;23.33;;
24277;SDS011;12394;42.692;23.314;2023-07-31T02:58:31;25.97;;;23.07;;
24277;SDS011;12394;42.692;23.314;2023-07-31T03:00:57;25.67;;;23.07;;
24277;SDS011;12394;42.692;23.314;2023-07-31T03:03:23;24.93;;;22.33;;
24277;SDS011;12394;42.692;23.314;2023-07-31T03:05:49;23.60;;;21.17;;
24277;SDS011;12394;42.692;23.314;2023-07-31T03:08:14;25.97;;;22.20;;
24277;SDS011;12394;42.692;23.314;2023-07-31T03:10:40;22.80;;;20.50;;
24277;SDS011;12394;42.692;23.314;2023-07-31T03:13:06;24.27;;;21.83;;
24277;SDS011;12394;42.692;23.314;2023-07-31T03:15:32;24.03;;;21.63;;
24277;SDS011;12394;42.692;23.314;2023-07-31T03:17:57;25.17;;;22.63;;
24277;SDS011;12394;42.692;23.314;2023-07-31T03:20:22;24.50;;;22.00;;
24277;SDS011;12394;42.692;23.314;2023-07-31T03:22:48;26.40;;;23.60;;
24277;SDS011;12394;42.692;23.314;2023-07-31T03:25:13;24.33;;;21.83;;
24277;SDS011;12394;42.692;23.314;2023-07-31T03:27:39;25.77;;;23.10;;
24277;SDS011;12394;42.692;23.314;2023-07-31T03:30:05;24.80;;;22.37;;
24277;SDS011;12394;42.692;23.314;2023-07-31T03:32:30;26.53;;;23.33;;
24277;SDS011;12394;42.692;23.314;2023-07-31T03:34:56;25.00;;;22.33;;
24277;SDS011;12394;42.692;23.314;2023-07-31T03:37:22;25.07;;;22.47;;
24277;SDS011;12394;42.692;23.314;2023-07-31T03:39:48;24.43;;;21.90;;
24277;SDS011;12394;42.692;23.314;2023-07-31T03:42:13;26.07;;;23.30;;
24277;SDS011;12394;42.692;23.314;2023-07-31T03:44:38;26.23;;;22.50;;
24277;SDS011;12394;42.692;23.314;2023-07-31T03:47:04;25.17;;;22.57;;
24277;SDS011;12394;42.692;23.314;2023-07-31T03:49:30;24.13;;;21.73;;
24277;SDS011;12394;42.692;23.314;2023-07-31T03:51:55;25.17;;;22.43;;
24277;SDS011;12394;42.692;23.314;2023-07-31T03:54:21;25.83;;;23.07;;
24277;SDS011;12394;42.692;23.314;2023-07-31T03:56:46;26.50;;;23.70;;
24277;SDS011;12394;42.692;23.314;2023-07-31T03:59:12;27.00;;;23.87;;
24277;SDS011;12394;42.692;23.314;2023-07-31T04:01:37;27.63;;;24.67;;
24277;SDS011;12394;42.692;23.314;2023-07-31T04:04:02;27.10;;;24.03;;
24277;SDS011;12394;42.692;23.314;2023-07-31T04:06:28;27.87;;;24.93;;
24277;SDS011;12394;42.692;23.314;2023-07-31T04:08:53;27.33;;;24.43;;
24277;SDS011;12394;42.692;23.314;2023-07-31T04:11:19;26.73;;;23.83;;
24277;SDS011;12394;42.692;23.314;2023-07-31T04:13:44;28.23;;;24.57;;
24277;SDS011;12394;42.692;23.314;2023-07-31T04:16:09;28.23;;;25.20;;
24277;SDS011;12394;42.692;23.314;2023-07-31T04:18:35;26.90;;;24.00;;
24277;SDS011;12394;42.692;23.314;2023-07-31T04:21:00;28.00;;;24.93;;
24277;SDS011;12394;42.692;23.314;2023-07-31T04:23:29;27.50;;;24.53;;
24277;SDS011;12394;42.692;23.314;2023-07-31T04:25:54;29.50;;;26.30;;
24277;SDS011;12394;42.692;23.314;2023-07-31T04:28:20;30.13;;;24.23;;
24277;SDS011;12394;42.692;23.314;2023-07-31T04:30:45;29.87;;;25.20;;
24277;SDS011;12394;42.692;23.314;2023-07-31T04:33:11;29.43;;;25.53;;
24277;SDS011;12394;42.692;23.314;2023-07-31T04:35:36;28.53;;;24.57;;
24277;SDS011;12394;42.692;23.314;2023-07-31T04:38:02;30.63;;;25.17;;
24277;SDS011;12394;42.692;23.314;2023-07-31T04:40:27;27.33;;;23.83;;
24277;SDS011;12394;42.692;23.314;2023-07-31T04:42:52;30.03;;;24.57;;
24277;SDS011;12394;42.692;23.314;2023-07-31T04:45:18;30.97;;;25.40;;
24277;SDS011;12394;42.692;23.314;2023-07-31T04:47:43;24.77;;;22.10;;
24277;SDS011;12394;42.692;23.314;2023-07-31T04:50:09;29.47;;;25.03;;
24277;SDS011;12394;42.692;23.314;2023-07-31T04:52:34;24.53;;;21.93;;
24277;SDS011;12394;42.692;23.314;2023-07-31T04:55:00;27.47;;;23.80;;
24277;SDS011;12394;42.692;23.314;2023-07-31T04:57:25;25.80;;;22.80;;
24277;SDS011;12394;42.692;23.314;2023-07-31T04:59:51;28.00;;;23.57;;
24277;SDS011;12394;42.692;23.314;2023-07-31T05:02:17;25.47;;;22.63;;
24277;SDS011;12394;42.692;23.314;2023-07-31T05:04:43;26.77;;;23.97;;
24277;SDS011;12394;42.692;23.314;2023-07-31T05:07:08;25.17;;;22.43;;
24277;SDS011;12394;42.692;23.314;2023-07-31T05:09:34;25.57;;;22.13;;
24277;SDS011;12394;42.692;23.314;2023-07-31T05:11:59;24.03;;;21.63;;
24277;SDS011;12394;42.692;23.314;2023-07-31T05:14:25;22.97;;;20.03;;
24277;SDS011;12394;42.692;23.314;2023-07-31T05:16:51;20.97;;;18.87;;
24277;SDS011;12394;42.692;23.314;2023-07-31T05:19:16;21.97;;;19.20;;
24277;SDS011;12394;42.692;23.314;2023-07-31T05:21:42;23.83;;;18.90;;
24277;SDS011;12394;42.692;23.314;2023-07-31T05:24:07;21.40;;;19.20;;
24277;SDS011;12394;42.692;23.314;2023-07-31T05:26:33;18.97;;;17.03;;
24277;SDS011;12394;42.692;23.314;2023-07-31T05:28:58;19.13;;;17.00;;
24277;SDS011;12394;42.692;23.314;2023-07-31T05:31:24;19.97;;;17.83;;
24277;SDS011;12394;42.692;23.314;2023-07-31T05:33:50;18.87;;;17.07;;
24277;SDS011;12394;42.692;23.314;2023-07-31T05:36:16;18.40;;;16.47;;
24277;SDS011;12394;42.692;23.314;2023-07-31T05:38:42;21.30;;;16.50;;
24277;SDS011;12394;42.692;23.314;2023-07-31T05:41:09;16.13;;;14.40;;
24277;SDS011;12394;42.692;23.314;2023-07-31T05:43:35;16.73;;;15.10;;
24277;SDS011;12394;42.692;23.314;2023-07-31T05:46:00;16.87;;;14.37;;
24277;SDS011;12394;42.692;23.314;2023-07-31T05:48:26;15.77;;;14.27;;
24277;SDS011;12394;42.692;23.314;2023-07-31T05:50:52;14.30;;;12.83;;
24277;SDS011;12394;42.692;23.314;2023-07-31T05:53:17;16.27;;;11.93;;
24277;SDS011;12394;42.692;23.314;2023-07-31T05:55:42;11.90;;;10.70;;
24277;SDS011;12394;42.692;23.314;2023-07-31T05:58:08;12.53;;;11.33;;
24277;SDS011;12394;42.692;23.314;2023-07-31T06:00:33;11.93;;;10.50;;
24277;SDS011;12394;42.692;23.314;2023-07-31T06:02:59;13.70;;;10.60;;
24277;SDS011;12394;42.692;23.314;2023-07-31T06:05:24;12.70;;;10.50;;
24277;SDS011;12394;42.692;23.314;2023-07-31T06:07:51;12.07;;;10.97;;
24277;SDS011;12394;42.692;23.314;2023-07-31T06:10:16;10.10;;;8.77;;
24277;SDS011;12394;42.692;23.314;2023-07-31T06:12:41;12.67;;;10.47;;
24277;SDS011;12394;42.692;23.314;2023-07-31T06:15:07;9.67;;;8.77;;
24277;SDS011;12394;42.692;23.314;2023-07-31T06:17:33;8.40;;;7.43;;
24277;SDS011;12394;42.692;23.314;2023-07-31T06:19:58;8.00;;;7.20;;
24277;SDS011;12394;42.692;23.314;2023-07-31T06:22:23;7.10;;;5.70;;
24277;SDS011;12394;42.692;23.314;2023-07-31T06:24:49;7.57;;;6.70;;
24277;SDS011;12394;42.692;23.314;2023-07-31T06:27:14;7.90;;;6.53;;
24277;SDS011;12394;42.692;23.314;2023-07-31T06:29:40;7.23;;;6.53;;
24277;SDS011;12394;42.692;23.314;2023-07-31T06:32:06;6.80;;;6.20;;
24277;SDS011;12394;42.692;23.314;2023-07-31T06:34:32;7.67;;;6.37;;
24277;SDS011;12394;42.692;23.314;2023-07-31T06:36:57;8.57;;;6.40;;
24277;SDS011;12394;42.692;23.314;2023-07-31T06:39:22;7.10;;;6.00;;
24277;SDS011;12394;42.692;23.314;2023-07-31T06:41:48;14.33;;;6.50;;
24277;SDS011;12394;42.692;23.314;2023-07-31T06:44:14;10.47;;;6.47;;
24277;SDS011;12394;42.692;23.314;2023-07-31T06:46:39;6.30;;;5.70;;
24277;SDS011;12394;42.692;23.314;2023-07-31T06:49:05;6.20;;;5.53;;
24277;SDS011;12394;42.692;23.314;2023-07-31T06:51:30;11.57;;;6.00;;
24277;SDS011;12394;42.692;23.314;2023-07-31T06:53:56;7.23;;;5.13;;
24277;SDS011;12394;42.692;23.314;2023-07-31T06:56:25;8.67;;;5.53;;
24277;SDS011;12394;42.692;23.314;2023-07-31T06:58:51;9.30;;;5.57;;
24277;SDS011;12394;42.692;23.314;2023-07-31T07:01:16;9.20;;;5.10;;
24277;SDS011;12394;42.692;23.314;2023-07-31T07:03:42;5.43;;;4.90;;
24277;SDS011;12394;42.692;23.314;2023-07-31T07:06:07;8.13;;;4.93;;
24277;SDS011;12394;42.692;23.314;2023-07-31T07:08:32;5.03;;;4.53;;
24277;SDS011;12394;42.692;23.314;2023-07-31T07:10:58;4.80;;;4.40;;
24277;SDS011;12394;42.692;23.314;2023-07-31T07:13:23;7.20;;;5.30;;
24277;SDS011;12394;42.692;23.314;2023-07-31T07:15:49;9.60;;;5.13;;
24277;SDS011;12394;42.692;23.314;2023-07-31T07:18:15;4.80;;;4.40;;
24277;SDS011;12394;42.692;23.314;2023-07-31T07:20:46;10.07;;;4.33;;
24277;SDS011;12394;42.692;23.314;2023-07-31T07:23:12;5.23;;;4.20;;
24277;SDS011;12394;42.692;23.314;2023-07-31T07:25:37;5.40;;;4.70;;
24277;SDS011;12394;42.692;23.314;2023-07-31T07:28:03;6.07;;;4.63;;
24277;SDS011;12394;42.692;23.314;2023-07-31T07:30:28;4.97;;;4.43;;
24277;SDS011;12394;42.692;23.314;2023-07-31T07:32:54;7.90;;;4.40;;
24277;SDS011;12394;42.692;23.314;2023-07-31T07:35:19;7.23;;;4.40;;
24277;SDS011;12394;42.692;23.314;2023-07-31T07:37:45;4.37;;;3.97;;
24277;SDS011;12394;42.692;23.314;2023-07-31T07:40:14;5.70;;;4.53;;
24277;SDS011;12394;42.692;23.314;2023-07-31T07:42:39;4.90;;;4.43;;
24277;SDS011;12394;42.692;23.314;2023-07-31T07:45:05;11.83;;;4.57;;
24277;SDS011;12394;42.692;23.314;2023-07-31T07:47:30;6.20;;;3.90;;
24277;SDS011;12394;42.692;23.314;2023-07-31T07:49:56;7.67;;;5.07;;
24277;SDS011;12394;42.692;23.314;2023-07-31T07:52:21;4.13;;;3.70;;
24277;SDS011;12394;42.692;23.314;2023-07-31T07:54:46;4.67;;;3.23;;
24277;SDS011;12394;42.692;23.314;2023-07-31T07:57:12;5.27;;;3.53;;
24277;SDS011;12394;42.692;23.314;2023-07-31T07:59:37;5.73;;;3.10;;
24277;SDS011;12394;42.692;23.314;2023-07-31T08:02:03;5.37;;;3.37;;
24277;SDS011;12394;42.692;23.314;2023-07-31T08:04:28;5.50;;;3.57;;
24277;SDS011;12394;42.692;23.314;2023-07-31T08:06:54;4.83;;;3.83;;
24277;SDS011;12394;42.692;23.314;2023-07-31T08:09:19;10.30;;;3.80;;
24277;SDS011;12394;42.692;23.314;2023-07-31T08:11:44;6.27;;;3.73;;
24277;SDS011;12394;42.692;23.314;2023-07-31T08:14:10;7.83;;;3.40;;
24277;SDS011;12394;42.692;23.314;2023-07-31T08:16:35;4.90;;;3.60;;
24277;SDS011;12394;42.692;23.314;2023-07-31T08:19:01;5.00;;;3.50;;
24277;SDS011;12394;42.692;23.314;2023-07-31T08:21:26;4.70;;;4.00;;
24277;SDS011;12394;42.692;23.314;2023-07-31T08:23:52;6.07;;;4.17;;
24277;SDS011;12394;42.692;23.314;2023-07-31T08:26:18;4.40;;;4.00;;
24277;SDS011;12394;42.692;23.314;2023-07-31T08:28:44;6.77;;;3.80;;
24277;SDS011;12394;42.692;23.314;2023-07-31T08:31:09;7.63;;;4.20;;
24277;SDS011;12394;42.692;23.314;2023-07-31T08:33:35;7.47;;;4.03;;
24277;SDS011;12394;42.692;23.314;2023-07-31T08:36:01;6.50;;;3.97;;
24277;SDS011;12394;42.692;23.314;2023-07-31T08:38:27;5.77;;;3.73;;
24277;SDS011;12394;42.692;23.314;2023-07-31T08:40:54;6.03;;;3.93;;
24277;SDS011;12394;42.692;23.314;2023-07-31T08:43:22;8.33;;;4.60;;
24277;SDS011;12394;42.692;23.314;2023-07-31T08:45:51;5.40;;;4.03;;
24277;SDS011;12394;42.692;23.314;2023-07-31T08:48:16;4.30;;;3.83;;
24277;SDS011;12394;42.692;23.314;2023-07-31T08:50:42;6.10;;;4.00;;
24277;SDS011;12394;42.692;23.314;2023-07-31T08:53:08;4.20;;;3.77;;
24277;SDS011;12394;42.692;23.314;2023-07-31T08:55:34;4.87;;;3.83;;
24277;SDS011;12394;42.692;23.314;2023-07-31T08:58:01;4.37;;;3.90;;
24277;SDS011;12394;42.692;23.314;2023-07-31T09:00:29;4.07;;;3.30;;
24277;SDS011;12394;42.692;23.314;2023-07-31T09:03:01;5.30;;;3.77;;
24277;SDS011;12394;42.692;23.314;2023-07-31T09:05:29;6.97;;;3.60;;
24277;SDS011;12394;42.692;23.314;2023-07-31T09:07:56;11.70;;;3.37;;
24277;SDS011;12394;42.692;23.314;2023-07-31T09:10:23;5.87;;;3.53;;
24277;SDS011;12394;42.692;23.314;2023-07-31T09:12:48;5.63;;;3.37;;
24277;SDS011;12394;42.692;23.314;2023-07-31T09:15:15;5.25;;;3.85;;
24277;SDS011;12394;42.692;23.314;2023-07-31T09:17:41;3.88;;;3.38;;
24277;SDS011;12394;42.692;23.314;2023-07-31T09:22:46;6.27;;;3.40;;
24277;SDS011;12394;42.692;23.314;2023-07-31T09:30:16;3.80;;;3.27;;
24277;SDS011;12394;42.692;23.314;2023-07-31T09:32:43;3.67;;;3.38;;
24277;SDS011;12394;42.692;23.314;2023-07-31T09:35:13;6.57;;;3.25;;
24277;SDS011;12394;42.692;23.314;2023-07-31T09:37:49;3.25;;;2.88;;
24277;SDS011;12394;42.692;23.314;2023-07-31T09:40:33;4.90;;;2.85;;
24277;SDS011;12394;42.692;23.314;2023-07-31T09:43:03;2.88;;;2.67;;
24277;SDS011;12394;42.692;23.314;2023-07-31T09:45:30;3.78;;;2.95;;
24277;SDS011;12394;42.692;23.314;2023-07-31T09:47:59;5.57;;;3.40;;
24277;SDS011;12394;42.692;23.314;2023-07-31T09:50:24;9.70;;;3.80;;
24277;SDS011;12394;42.692;23.314;2023-07-31T09:52:50;5.93;;;3.60;;
24277;SDS011;12394;42.692;23.314;2023-07-31T09:55:17;5.10;;;2.30;;
24277;SDS011;12394;42.692;23.314;2023-07-31T09:57:44;3.78;;;2.67;;
24277;SDS011;12394;42.692;23.314;2023-07-31T10:00:12;6.85;;;3.25;;
24277;SDS011;12394;42.692;23.314;2023-07-31T10:02:39;4.72;;;2.80;;
24277;SDS011;12394;42.692;23.314;2023-07-31T10:05:05;4.03;;;2.67;;
24277;SDS011;12394;42.692;23.314;2023-07-31T10:07:33;3.15;;;2.60;;
24277;SDS011;12394;42.692;23.314;2023-07-31T10:10:03;6.43;;;2.92;;
24277;SDS011;12394;42.692;23.314;2023-07-31T10:12:30;2.95;;;2.58;;
24277;SDS011;12394;42.692;23.314;2023-07-31T10:14:57;3.72;;;2.70;;
24277;SDS011;12394;42.692;23.314;2023-07-31T10:17:25;3.13;;;2.30;;
24277;SDS011;12394;42.692;23.314;2023-07-31T10:19:51;2.50;;;2.30;;
24277;SDS011;12394;42.692;23.314;2023-07-31T10:22:18;6.00;;;2.20;;
24277;SDS011;12394;42.692;23.314;2023-07-31T10:24:45;3.72;;;2.50;;
24277;SDS011;12394;42.692;23.314;2023-07-31T10:27:11;2.53;;;2.33;;
24277;SDS011;12394;42.692;23.314;2023-07-31T10:29:38;4.35;;;2.92;;
24277;SDS011;12394;42.692;23.314;2023-07-31T10:32:05;2.42;;;2.10;;
24277;SDS011;12394;42.692;23.314;2023-07-31T10:34:35;4.55;;;2.42;;
24277;SDS011;12394;42.692;23.314;2023-07-31T10:39:45;3.67;;;2.63;;
24277;SDS011;12394;42.692;23.314;2023-07-31T10:42:26;7.85;;;3.10;;
24277;SDS011;12394;42.692;23.314;2023-07-31T10:44:56;3.25;;;2.00;;
24277;SDS011;12394;42.692;23.314;2023-07-31T10:47:25;2.85;;;2.65;;
24277;SDS011;12394;42.692;23.314;2023-07-31T10:49:51;2.80;;;2.47;;
24277;SDS011;12394;42.692;23.314;2023-07-31T10:52:20;2.40;;;2.20;;
24277;SDS011;12394;42.692;23.314;2023-07-31T10:55:14;6.33;;;3.17;;
24277;SDS011;12394;42.692;23.314;2023-07-31T10:57:56;4.17;;;2.30;;
24277;SDS011;12394;42.692;23.314;2023-07-31T11:00:29;3.83;;;2.70;;
24277;SDS011;12394;42.692;23.314;2023-07-31T11:02:58;2.90;;;2.70;;
24277;SDS011;12394;42.692;23.314;2023-07-31T11:08:25;3.70;;;2.33;;
24277;SDS011;12394;42.692;23.314;2023-07-31T11:13:29;3.10;;;2.80;;
24277;SDS011;12394;42.692;23.314;2023-07-31T11:15:59;2.90;;;2.60;;
24277;SDS011;12394;42.692;23.314;2023-07-31T11:18:28;3.67;;;3.00;;
24277;SDS011;12394;42.692;23.314;2023-07-31T11:20:53;2.67;;;2.10;;
24277;SDS011;12394;42.692;23.314;2023-07-31T11:23:19;4.83;;;2.73;;
24277;SDS011;12394;42.692;23.314;2023-07-31T11:25:45;3.57;;;2.60;;
24277;SDS011;12394;42.692;23.314;2023-07-31T11:28:12;3.67;;;2.37;;
24277;SDS011;12394;42.692;23.314;2023-07-31T11:30:39;3.60;;;2.53;;
24277;SDS011;12394;42.692;23.314;2023-07-31T11:33:06;3.13;;;2.20;;
24277;SDS011;12394;42.692;23.314;2023-07-31T11:35:32;4.30;;;2.77;;
24277;SDS011;12394;42.692;23.314;2023-07-31T11:37:58;3.87;;;2.23;;
24277;SDS011;12394;42.692;23.314;2023-07-31T11:40:26;4.97;;;2.73;;
24277;SDS011;12394;42.692;23.314;2023-07-31T11:42:57;6.03;;;3.57;;
24277;SDS011;12394;42.692;23.314;2023-07-31T11:45:24;4.10;;;3.20;;
24277;SDS011;12394;42.692;23.314;2023-07-31T11:47:54;5.43;;;3.57;;
24277;SDS011;12394;42.692;23.314;2023-07-31T11:50:21;6.33;;;3.70;;
24277;SDS011;12394;42.692;23.314;2023-07-31T11:52:47;3.47;;;3.17;;
24277;SDS011;12394;42.692;23.314;2023-07-31T11:55:15;4.63;;;3.50;;
24277;SDS011;12394;42.692;23.314;2023-07-31T11:57:42;7.03;;;3.50;;
24277;SDS011;12394;42.692;23.314;2023-07-31T12:00:10;3.77;;;3.37;;
24277;SDS011;12394;42.692;23.314;2023-07-31T12:02:38;9.30;;;4.40;;
24277;SDS011;12394;42.692;23.314;2023-07-31T12:05:10;4.70;;;3.50;;
24277;SDS011;12394;42.692;23.314;2023-07-31T12:07:44;5.53;;;4.10;;
24277;SDS011;12394;42.692;23.314;2023-07-31T12:10:11;4.60;;;3.77;;
24277;SDS011;12394;42.692;23.314;2023-07-31T12:12:55;5.80;;;4.10;;
24277;SDS011;12394;42.692;23.314;2023-07-31T12:18:00;5.53;;;4.80;;
24277;SDS011;12394;42.692;23.314;2023-07-31T12:20:29;7.33;;;5.33;;
24277;SDS011;12394;42.692;23.314;2023-07-31T12:22:55;5.43;;;5.03;;
24277;SDS011;12394;42.692;23.314;2023-07-31T12:25:22;5.63;;;5.13;;
24277;SDS011;12394;42.692;23.314;2023-07-31T12:27:47;11.77;;;6.10;;
24277;SDS011;12394;42.692;23.314;2023-07-31T12:30:29;6.67;;;5.97;;
24277;SDS011;12394;42.692;23.314;2023-07-31T12:32:57;5.50;;;5.00;;
24277;SDS011;12394;42.692;23.314;2023-07-31T12:35:22;5.97;;;4.67;;
24277;SDS011;12394;42.692;23.314;2023-07-31T12:37:48;9.57;;;5.03;;
24277;SDS011;12394;42.692;23.314;2023-07-31T12:40:13;4.70;;;4.30;;
24277;SDS011;12394;42.692;23.314;2023-07-31T12:42:39;7.23;;;5.67;;
24277;SDS011;12394;42.692;23.314;2023-07-31T12:45:06;5.93;;;5.33;;
24277;SDS011;12394;42.692;23.314;2023-07-31T12:47:32;7.40;;;5.73;;
24277;SDS011;12394;42.692;23.314;2023-07-31T12:49:57;6.70;;;6.03;;
24277;SDS011;12394;42.692;23.314;2023-07-31T12:52:23;6.43;;;5.83;;
24277;SDS011;12394;42.692;23.314;2023-07-31T12:54:48;7.07;;;6.47;;
24277;SDS011;12394;42.692;23.314;2023-07-31T12:57:13;7.00;;;6.40;;
24277;SDS011;12394;42.692;23.314;2023-07-31T12:59:39;6.93;;;5.53;;
24277;SDS011;12394;42.692;23.314;2023-07-31T13:02:04;6.67;;;6.07;;
24277;SDS011;12394;42.692;23.314;2023-07-31T13:04:30;6.63;;;6.00;;
24277;SDS011;12394;42.692;23.314;2023-07-31T13:06:55;13.40;;;6.80;;
24277;SDS011;12394;42.692;23.314;2023-07-31T13:09:21;8.57;;;6.40;;
24277;SDS011;12394;42.692;23.314;2023-07-31T13:11:46;6.30;;;5.47;;
24277;SDS011;12394;42.692;23.314;2023-07-31T13:14:11;9.50;;;5.80;;
24277;SDS011;12394;42.692;23.314;2023-07-31T13:16:37;7.17;;;6.47;;
24277;SDS011;12394;42.692;23.314;2023-07-31T13:19:02;6.67;;;6.00;;
24277;SDS011;12394;42.692;23.314;2023-07-31T13:21:28;6.60;;;6.00;;
24277;SDS011;12394;42.692;23.314;2023-07-31T13:23:54;9.80;;;6.10;;
24277;SDS011;12394;42.692;23.314;2023-07-31T13:26:19;6.20;;;5.40;;
24277;SDS011;12394;42.692;23.314;2023-07-31T13:28:45;7.60;;;5.40;;
24277;SDS011;12394;42.692;23.314;2023-07-31T13:31:10;7.87;;;4.93;;
24277;SDS011;12394;42.692;23.314;2023-07-31T13:33:36;6.23;;;4.73;;
24277;SDS011;12394;42.692;23.314;2023-07-31T13:36:02;5.17;;;4.67;;
24277;SDS011;12394;42.692;23.314;2023-07-31T13:38:27;6.03;;;4.97;;
24277;SDS011;12394;42.692;23.314;2023-07-31T13:40:52;8.77;;;4.77;;
24277;SDS011;12394;42.692;23.314;2023-07-31T13:43:18;7.63;;;5.17;;
24277;SDS011;12394;42.692;23.314;2023-07-31T13:45:43;5.33;;;4.50;;
24277;SDS011;12394;42.692;23.314;2023-07-31T13:48:09;13.97;;;5.20;;
24277;SDS011;12394;42.692;23.314;2023-07-31T13:50:34;5.00;;;4.60;;
24277;SDS011;12394;42.692;23.314;2023-07-31T13:52:59;8.63;;;4.67;;
24277;SDS011;12394;42.692;23.314;2023-07-31T13:55:25;5.47;;;4.50;;
24277;SDS011;12394;42.692;23.314;2023-07-31T13:57:50;7.60;;;5.00;;
24277;SDS011;12394;42.692;23.314;2023-07-31T14:00:16;6.87;;;4.50;;
24277;SDS011;12394;42.692;23.314;2023-07-31T14:02:41;4.70;;;4.30;;
24277;SDS011;12394;42.692;23.314;2023-07-31T14:05:07;5.90;;;4.00;;
24277;SDS011;12394;42.692;23.314;2023-07-31T14:07:34;4.90;;;4.50;;
24277;SDS011;12394;42.692;23.314;2023-07-31T14:09:59;4.70;;;4.27;;
24277;SDS011;12394;42.692;23.314;2023-07-31T14:12:25;5.67;;;4.90;;
24277;SDS011;12394;42.692;23.314;2023-07-31T14:14:50;8.63;;;4.57;;
24277;SDS011;12394;42.692;23.314;2023-07-31T14:17:16;5.33;;;4.57;;
24277;SDS011;12394;42.692;23.314;2023-07-31T14:19:42;8.67;;;5.03;;
24277;SDS011;12394;42.692;23.314;2023-07-31T14:22:07;4.97;;;4.40;;
24277;SDS011;12394;42.692;23.314;2023-07-31T14:24:32;5.93;;;4.30;;
24277;SDS011;12394;42.692;23.314;2023-07-31T14:26:59;4.97;;;4.47;;
24277;SDS011;12394;42.692;23.314;2023-07-31T14:29:24;4.60;;;4.20;;
24277;SDS011;12394;42.692;23.314;2023-07-31T14:31:50;6.03;;;5.43;;
24277;SDS011;12394;42.692;23.314;2023-07-31T14:34:15;6.27;;;4.50;;
24277;SDS011;12394;42.692;23.314;2023-07-31T14:36:41;5.00;;;4.20;;
24277;SDS011;12394;42.692;23.314;2023-07-31T14:39:07;6.60;;;4.10;;
24277;SDS011;12394;42.692;23.314;2023-07-31T14:41:32;5.27;;;4.47;;
24277;SDS011;12394;42.692;23.314;2023-07-31T14:43:58;6.00;;;4.17;;
24277;SDS011;12394;42.692;23.314;2023-07-31T14:46:23;7.20;;;4.50;;
24277;SDS011;12394;42.692;23.314;2023-07-31T14:48:48;4.67;;;4.17;;